METAR Data
IDs: Format: Raw Decoded Include TAF

Data at: 0201 UTC 01 Mar 2021

LRFT 282300Z 17005KT 9999 FEW090 01/00 Q1026 BLU BLU